Noatak, Alaska
Current Conditions -  °F | °C
As of 9:16 AM on Thursday 23 Oct 2014 (Local Time) from PAWN Reporting Station
Clear Clear  
Wind Chill:   Ceiling: Unl
Heat Index:   Visibility: 10mi
Dew Point:   Wind: 0mph
Humidity: 79%   Direction: NA
Pressure: 29.81"   Gusts: NA
Location:  67.56°N, 162.98°W
Report Text: PAWN 231716Z AUTO 00000KT 10SM CLR M14/M17 A2981 RMK AO1
Loading
Personal Weather Stations






























Interactive Weather Map
Tropical Storm Tracking
New forecast layout! Learn more

10-Day Weather Forecast

Advertisements
Track Severe Weather on mobile